createdAt,value
2018-12-01T00:02:09.264Z,100.00
2018-12-01T00:04:39.174Z,100.00
2018-12-01T00:07:09.090Z,100.00
2018-12-01T00:09:38.896Z,100.00
2018-12-01T00:12:08.826Z,100.00
2018-12-01T00:14:39.824Z,100.00
2018-12-01T00:17:09.832Z,100.00
2018-12-01T00:19:39.688Z,100.00
2018-12-01T00:22:09.551Z,100.00
2018-12-01T00:24:39.432Z,100.00
2018-12-01T00:27:09.434Z,100.00
2018-12-01T00:29:39.297Z,100.00
2018-12-01T00:32:09.201Z,100.00
2018-12-01T00:34:39.349Z,100.00
2018-12-01T00:38:11.307Z,100.00
2018-12-01T00:40:41.285Z,100.00
2018-12-01T00:43:11.219Z,100.00
2018-12-01T00:45:41.051Z,100.00
2018-12-01T00:48:10.965Z,100.00
2018-12-01T00:50:40.803Z,100.00
2018-12-01T00:53:10.778Z,100.00
2018-12-01T00:55:40.578Z,100.00
2018-12-01T00:58:10.439Z,100.00
2018-12-01T01:00:40.337Z,100.00
2018-12-01T01:03:10.296Z,100.00
2018-12-01T01:05:40.144Z,100.00
2018-12-01T01:08:10.122Z,100.00
2018-12-01T01:10:40.213Z,100.00
2018-12-01T01:13:10.643Z,100.00
2018-12-01T01:15:40.830Z,100.00
2018-12-01T01:18:10.703Z,100.00
2018-12-01T01:20:40.810Z,100.00
2018-12-01T01:23:10.861Z,100.00
2018-12-01T01:25:40.767Z,99.90
2018-12-01T01:28:10.701Z,99.97
2018-12-01T01:30:40.541Z,100.00
2018-12-01T01:33:31.372Z,100.00
2018-12-01T01:36:01.413Z,100.00
2018-12-01T01:38:31.249Z,99.57
2018-12-01T01:41:06.059Z,99.35
2018-12-01T01:43:36.913Z,99.27
2018-12-01T01:46:06.874Z,99.44
2018-12-01T01:48:36.687Z,99.44
2018-12-01T01:51:06.939Z,99.61
2018-12-01T01:53:36.795Z,100.00
2018-12-01T01:56:07.047Z,100.00
2018-12-01T01:58:36.824Z,100.00
2018-12-01T02:01:07.240Z,100.00
2018-12-01T02:03:37.037Z,100.00
2018-12-01T02:06:07.551Z,100.00
2018-12-01T02:08:37.433Z,100.00
2018-12-01T02:11:07.898Z,100.00
2018-12-01T02:13:37.708Z,100.00
2018-12-01T02:16:07.916Z,99.67
2018-12-01T02:18:37.724Z,99.37
2018-12-01T02:21:08.126Z,99.16
2018-12-01T02:23:37.885Z,98.74
2018-12-01T02:26:07.694Z,98.99
2018-12-01T02:28:37.534Z,99.39
2018-12-01T02:31:07.705Z,99.65
2018-12-01T02:33:37.714Z,99.71
2018-12-01T02:36:07.588Z,99.69
2018-12-01T02:38:37.416Z,99.80
2018-12-01T02:41:07.210Z,100.00
2018-12-01T02:43:36.994Z,99.87
2018-12-01T02:46:24.428Z,99.92
2018-12-01T02:48:54.251Z,99.88
2018-12-01T02:51:24.135Z,99.87
2018-12-01T02:53:53.963Z,99.72
2018-12-01T02:56:24.564Z,100.00
2018-12-01T02:58:54.419Z,99.77
2018-12-01T03:01:24.504Z,99.81
2018-12-01T03:03:54.368Z,99.95
2018-12-01T03:06:24.180Z,99.87
2018-12-01T03:08:54.460Z,99.49
2018-12-01T03:11:24.411Z,99.20
2018-12-01T03:13:54.247Z,98.80
2018-12-01T03:16:24.049Z,98.68
2018-12-01T03:18:53.865Z,98.60
2018-12-01T03:21:23.711Z,98.96
2018-12-01T03:23:53.527Z,98.80
2018-12-01T03:26:23.329Z,98.66
2018-12-01T03:28:53.219Z,98.58
2018-12-01T03:31:23.028Z,98.35
2018-12-01T03:33:53.540Z,98.71
2018-12-01T03:36:23.359Z,98.83
2018-12-01T03:38:53.183Z,98.80
2018-12-01T03:41:23.127Z,98.54
2018-12-01T03:43:52.955Z,98.53
2018-12-01T03:46:22.839Z,98.46
2018-12-01T03:48:52.729Z,98.72
2018-12-01T03:51:22.582Z,98.84
2018-12-01T03:53:52.461Z,98.76
2018-12-01T03:56:22.519Z,98.80
2018-12-01T03:58:52.340Z,98.96
2018-12-01T04:01:22.301Z,98.89
2018-12-01T04:03:52.372Z,98.78
2018-12-01T04:06:22.186Z,98.75
2018-12-01T04:08:52.395Z,98.61
2018-12-01T04:11:22.279Z,97.86
2018-12-01T04:13:52.295Z,97.67
2018-12-01T04:16:22.098Z,97.20
2018-12-01T04:18:52.284Z,96.89
2018-12-01T04:21:22.270Z,96.81
2018-12-01T04:23:52.383Z,96.79
2018-12-01T04:26:22.419Z,97.08
2018-12-01T04:28:52.254Z,97.11
2018-12-01T04:31:22.103Z,97.16
2018-12-01T04:33:52.256Z,97.19
2018-12-01T04:36:22.079Z,97.45
2018-12-01T04:38:51.839Z,97.52
2018-12-01T04:41:21.679Z,97.92
2018-12-01T04:43:51.508Z,97.50
2018-12-01T04:46:21.338Z,97.42
2018-12-01T04:48:51.139Z,97.71
2018-12-01T04:51:20.987Z,97.58
2018-12-01T04:53:50.816Z,97.86
2018-12-01T04:56:21.125Z,97.52
2018-12-01T04:58:50.966Z,97.93
2018-12-01T05:01:20.805Z,97.83
2018-12-01T05:03:50.684Z,97.77
2018-12-01T05:06:20.505Z,97.41
2018-12-01T05:08:50.364Z,97.77
2018-12-01T05:11:20.199Z,97.79
2018-12-01T05:13:50.233Z,97.14
2018-12-01T05:16:20.159Z,96.23
2018-12-01T05:18:50.029Z,95.80
2018-12-01T05:21:19.897Z,95.88
2018-12-01T05:23:49.721Z,95.74
2018-12-01T05:26:19.547Z,95.39
2018-12-01T05:28:49.379Z,95.76
2018-12-01T05:31:19.257Z,95.97
2018-12-01T05:33:49.055Z,95.73
2018-12-01T05:36:18.847Z,95.99
2018-12-01T05:38:48.666Z,96.46
2018-12-01T05:41:18.481Z,96.03
2018-12-01T05:43:48.595Z,96.40
2018-12-01T05:46:18.375Z,96.98
2018-12-01T05:48:48.219Z,96.79
2018-12-01T05:51:18.130Z,97.20
2018-12-01T05:53:47.957Z,97.00
2018-12-01T05:56:17.808Z,97.44
2018-12-01T05:58:47.661Z,97.72
2018-12-01T06:01:17.543Z,97.83
2018-12-01T06:03:47.483Z,97.80
2018-12-01T06:06:17.351Z,97.56
2018-12-01T06:08:47.215Z,97.60
2018-12-01T06:11:17.030Z,97.78
2018-12-01T06:13:46.807Z,97.64
2018-12-01T06:16:16.633Z,97.85
2018-12-01T06:18:46.437Z,97.59
2018-12-01T06:21:16.267Z,97.81
2018-12-01T06:23:46.105Z,97.90
2018-12-01T06:26:15.897Z,97.52
2018-12-01T06:28:45.720Z,96.77
2018-12-01T06:31:15.634Z,96.53
2018-12-01T06:33:45.441Z,96.72
2018-12-01T06:36:15.238Z,96.42
2018-12-01T06:38:45.082Z,96.27
2018-12-01T06:41:14.952Z,95.71
2018-12-01T06:43:44.746Z,95.77
2018-12-01T06:46:14.544Z,95.48
2018-12-01T06:48:44.460Z,95.31
2018-12-01T06:51:14.242Z,95.52
2018-12-01T06:53:44.048Z,95.74
2018-12-01T06:56:13.902Z,96.13
2018-12-01T06:58:43.660Z,95.89
2018-12-01T07:01:13.486Z,96.48
2018-12-01T07:03:43.296Z,96.19
2018-12-01T07:06:13.116Z,95.86
2018-12-01T07:08:43.224Z,96.05
2018-12-01T07:11:13.044Z,95.79
2018-12-01T07:13:42.857Z,95.75
2018-12-01T07:16:12.862Z,95.90
2018-12-01T07:18:59.405Z,95.63
2018-12-01T07:21:29.322Z,94.72
2018-12-01T07:23:59.119Z,94.85
2018-12-01T07:26:28.908Z,95.29
2018-12-01T07:28:58.763Z,95.65
2018-12-01T07:31:28.574Z,96.26
2018-12-01T07:33:58.448Z,95.36
2018-12-01T07:36:28.284Z,95.62
2018-12-01T07:38:58.281Z,95.93
2018-12-01T07:41:28.088Z,96.08
2018-12-01T07:43:57.910Z,95.94
2018-12-01T07:46:27.750Z,94.70
2018-12-01T07:48:57.528Z,94.70
2018-12-01T07:51:27.484Z,93.43
2018-12-01T07:53:57.321Z,93.28
2018-12-01T07:56:27.234Z,94.04
2018-12-01T07:58:57.019Z,92.85
2018-12-01T08:01:26.901Z,92.52
2018-12-01T08:03:56.900Z,92.64
2018-12-01T08:06:26.785Z,92.71
2018-12-01T08:08:56.697Z,93.06
2018-12-01T08:11:26.590Z,93.40
2018-12-01T08:13:56.485Z,93.44
2018-12-01T08:16:26.380Z,92.58
2018-12-01T08:18:56.197Z,92.91
2018-12-01T08:21:26.035Z,91.69
2018-12-01T08:23:55.975Z,92.17
2018-12-01T08:26:26.074Z,92.14
2018-12-01T08:28:55.951Z,91.66
2018-12-01T08:31:25.915Z,90.92
2018-12-01T08:33:55.727Z,90.37
2018-12-01T08:36:27.008Z,90.19
2018-12-01T08:38:56.852Z,89.96
2018-12-01T08:41:26.687Z,89.54
2018-12-01T08:43:56.554Z,89.57
2018-12-01T08:46:26.401Z,89.88
2018-12-01T08:48:56.388Z,90.19
2018-12-01T08:51:26.219Z,90.51
2018-12-01T08:53:56.050Z,90.58
2018-12-01T08:56:25.896Z,90.31
2018-12-01T08:58:55.716Z,89.59
2018-12-01T09:01:25.682Z,88.73
2018-12-01T09:03:55.448Z,88.22
2018-12-01T09:06:25.314Z,88.76
2018-12-01T09:10:24.548Z,88.72
2018-12-01T09:12:54.330Z,88.10
2018-12-01T09:15:24.163Z,88.04
2018-12-01T09:17:54.222Z,87.10
2018-12-01T09:20:24.003Z,86.36
2018-12-01T09:22:53.926Z,86.47
2018-12-01T09:25:23.706Z,86.01
2018-12-01T09:27:53.524Z,85.93
2018-12-01T09:30:26.013Z,86.23
2018-12-01T09:32:55.928Z,86.24
2018-12-01T09:35:25.900Z,85.97
2018-12-01T09:37:55.900Z,86.45
2018-12-01T09:40:25.969Z,86.77
2018-12-01T09:42:55.846Z,86.50
2018-12-01T09:45:26.736Z,86.08
2018-12-01T09:47:57.390Z,85.60
2018-12-01T09:50:27.188Z,84.80
2018-12-01T09:52:58.073Z,84.88
2018-12-01T09:55:31.269Z,83.49
2018-12-01T09:58:01.472Z,84.71
2018-12-01T10:00:34.018Z,85.49
2018-12-01T10:03:06.289Z,84.54
2018-12-01T10:05:36.560Z,84.57
2018-12-01T10:08:07.184Z,83.42
2018-12-01T10:10:37.037Z,83.09
2018-12-01T10:13:06.948Z,82.58
2018-12-01T10:15:37.805Z,82.85
2018-12-01T10:18:09.870Z,82.17
2018-12-01T10:20:39.701Z,81.95
2018-12-01T10:23:12.289Z,82.17
2018-12-01T10:25:42.125Z,81.76
2018-12-01T10:28:12.551Z,81.17
2018-12-01T10:30:42.727Z,80.61
2018-12-01T10:33:12.472Z,78.57
2018-12-01T10:35:42.318Z,79.75
2018-12-01T10:38:17.052Z,80.36
2018-12-01T10:40:47.002Z,80.25
2018-12-01T10:43:16.908Z,80.73
2018-12-01T10:45:46.739Z,80.70
2018-12-01T10:48:16.626Z,80.06
2018-12-01T10:50:46.424Z,80.46
2018-12-01T10:53:16.396Z,80.01
2018-12-01T10:55:46.259Z,80.07
2018-12-01T10:58:20.365Z,79.55
2018-12-01T11:00:57.416Z,80.60
2018-12-01T11:03:35.325Z,80.15
2018-12-01T11:06:09.305Z,79.63
2018-12-01T11:08:39.180Z,79.44
2018-12-01T11:11:09.058Z,79.74
2018-12-01T11:13:38.903Z,79.27
2018-12-01T11:16:09.271Z,79.26
2018-12-01T11:18:39.120Z,79.89
2018-12-01T11:21:09.368Z,79.39
2018-12-01T11:23:39.547Z,79.51
2018-12-01T11:26:09.508Z,78.48
2018-12-01T11:28:39.755Z,78.87
2018-12-01T11:31:09.614Z,79.31
2018-12-01T11:33:40.052Z,79.12
2018-12-01T11:36:10.336Z,79.00
2018-12-01T11:38:40.914Z,79.17
2018-12-01T11:41:10.796Z,78.44
2018-12-01T11:43:40.702Z,78.46
2018-12-01T11:46:10.560Z,78.47
2018-12-01T11:48:40.464Z,78.46
2018-12-01T11:51:10.332Z,77.86
2018-12-01T11:53:40.160Z,77.66
2018-12-01T11:56:10.040Z,76.22
2018-12-01T11:58:39.882Z,76.24
2018-12-01T12:01:09.740Z,74.06
2018-12-01T12:03:39.610Z,74.53
2018-12-01T12:06:09.516Z,74.88
2018-12-01T12:08:39.484Z,74.06
2018-12-01T12:11:09.526Z,73.83
2018-12-01T12:13:39.428Z,74.61
2018-12-01T12:16:09.402Z,74.27
2018-12-01T12:18:39.249Z,74.03
2018-12-01T12:21:09.107Z,74.23
2018-12-01T12:23:38.995Z,74.37
2018-12-01T12:26:08.834Z,74.96
2018-12-01T12:28:38.688Z,73.79
2018-12-01T12:31:08.635Z,73.83
2018-12-01T12:33:38.622Z,73.57
2018-12-01T12:36:09.697Z,74.64
2018-12-01T12:38:39.579Z,75.15
2018-12-01T12:41:09.355Z,75.23
2018-12-01T12:43:39.293Z,75.50
2018-12-01T12:46:09.285Z,75.38
2018-12-01T12:48:39.891Z,75.29
2018-12-01T12:51:09.779Z,75.37
2018-12-01T12:53:40.250Z,74.26
2018-12-01T12:56:10.155Z,74.28
2018-12-01T12:58:39.991Z,74.12
2018-12-01T13:01:09.959Z,73.76
2018-12-01T13:03:39.793Z,73.92
2018-12-01T13:06:09.635Z,73.51
2018-12-01T13:08:39.533Z,73.07
2018-12-01T13:11:09.411Z,74.04
2018-12-01T13:13:39.460Z,74.77
2018-12-01T13:16:09.333Z,74.75
2018-12-01T13:18:39.281Z,74.24
2018-12-01T13:21:09.145Z,74.35
2018-12-01T13:23:38.993Z,73.88
2018-12-01T13:26:09.373Z,73.68
2018-12-01T13:28:39.264Z,73.63
2018-12-01T13:31:09.171Z,73.22
2018-12-01T13:33:39.105Z,73.32
2018-12-01T13:36:09.090Z,73.13
2018-12-01T13:38:39.177Z,73.30
2018-12-01T13:41:09.123Z,71.73
2018-12-01T13:43:39.453Z,72.40
2018-12-01T13:46:09.387Z,73.29
2018-12-01T13:48:41.199Z,72.91
2018-12-01T13:51:11.632Z,73.19
2018-12-01T13:53:41.597Z,73.51
2018-12-01T13:56:11.621Z,73.29
2018-12-01T13:58:41.473Z,72.94
2018-12-01T14:01:11.289Z,73.59
2018-12-01T14:10:53.292Z,73.57
2018-12-01T14:13:23.277Z,73.65
2018-12-01T14:15:53.227Z,74.17
2018-12-01T14:18:23.227Z,75.39
2018-12-01T14:20:53.123Z,76.24
2018-12-01T14:23:23.113Z,76.61
2018-12-01T14:25:53.119Z,77.12
2018-12-01T14:28:23.060Z,77.84
2018-12-01T14:30:52.986Z,77.75
2018-12-01T14:33:23.095Z,78.01
2018-12-01T14:35:52.971Z,77.98
2018-12-01T14:38:22.965Z,78.49
2018-12-01T14:40:52.945Z,78.32
2018-12-01T14:43:23.347Z,78.41
2018-12-01T14:45:53.291Z,78.57
2018-12-01T14:48:23.237Z,78.61
2018-12-01T14:50:53.153Z,78.91
2018-12-01T14:53:23.113Z,78.81
2018-12-01T14:55:53.511Z,79.34
2018-12-01T14:58:23.429Z,79.68
2018-12-01T15:00:53.369Z,79.94
2018-12-01T15:03:23.273Z,80.03
2018-12-01T15:05:53.370Z,80.54
2018-12-01T15:08:23.486Z,80.94
2018-12-01T15:10:54.373Z,81.01
2018-12-01T15:13:24.600Z,81.29
2018-12-01T15:15:54.534Z,81.57
2018-12-01T15:18:24.439Z,81.76
2018-12-01T15:20:54.627Z,81.95
2018-12-01T15:23:24.500Z,82.30
2018-12-01T15:25:54.539Z,82.42
2018-12-01T15:28:24.485Z,82.74
2018-12-01T15:30:54.467Z,82.72
2018-12-01T15:33:24.495Z,82.32
2018-12-01T15:35:54.565Z,82.76
2018-12-01T15:38:25.159Z,83.43
2018-12-01T15:40:55.123Z,83.67
2018-12-01T15:43:25.154Z,84.02
2018-12-01T15:45:55.933Z,84.25
2018-12-01T15:48:25.811Z,84.56
2018-12-01T15:50:55.787Z,84.59
2018-12-01T15:53:26.057Z,84.69
2018-12-01T15:55:56.049Z,84.82
2018-12-01T15:58:26.184Z,85.00
2018-12-01T16:00:56.049Z,85.00
2018-12-01T16:03:25.935Z,85.09
2018-12-01T16:05:55.813Z,85.09
2018-12-01T16:08:25.649Z,85.22
2018-12-01T16:10:55.657Z,85.54
2018-12-01T16:13:27.131Z,85.64
2018-12-01T16:16:08.561Z,85.15
2018-12-01T16:18:38.577Z,85.58
2018-12-01T16:21:08.461Z,85.34
2018-12-01T16:23:39.220Z,85.63
2018-12-01T16:26:09.459Z,85.40
2018-12-01T16:28:39.317Z,85.59
2018-12-01T16:31:09.191Z,85.77
2018-12-01T16:33:39.023Z,85.94
2018-12-01T16:36:09.025Z,85.41
2018-12-01T16:38:39.077Z,84.90
2018-12-01T16:41:19.405Z,85.08
2018-12-01T16:43:49.603Z,84.79
2018-12-01T16:46:19.816Z,85.14
2018-12-01T16:48:49.671Z,84.83
2018-12-01T16:51:19.881Z,84.79
2018-12-01T16:53:50.085Z,85.29
2018-12-01T16:56:20.295Z,85.38
2018-12-01T16:58:50.329Z,85.27
2018-12-01T17:01:20.278Z,85.46
2018-12-01T17:03:50.138Z,85.66
2018-12-01T17:06:20.683Z,86.01
2018-12-01T17:08:51.672Z,86.00
2018-12-01T17:11:21.685Z,86.11
2018-12-01T17:13:51.573Z,86.32
2018-12-01T17:16:21.773Z,86.10
2018-12-01T17:18:51.948Z,86.00
2018-12-01T17:21:21.749Z,85.76
2018-12-01T17:23:51.656Z,85.97
2018-12-01T17:26:21.617Z,85.62
2018-12-01T17:28:51.453Z,85.94
2018-12-01T17:31:21.247Z,85.93
2018-12-01T17:33:51.101Z,86.16
2018-12-01T17:36:21.018Z,85.79
2018-12-01T17:38:50.874Z,85.71
2018-12-01T17:41:24.960Z,86.32
2018-12-01T17:44:00.616Z,86.35
2018-12-01T17:46:30.500Z,86.47
2018-12-01T17:49:01.354Z,86.25
2018-12-01T17:51:31.281Z,86.18
2018-12-01T17:54:11.464Z,86.09
2018-12-01T17:56:41.736Z,85.91
2018-12-01T17:59:11.638Z,85.73
2018-12-01T18:01:42.261Z,85.49
2018-12-01T18:04:12.139Z,85.84
2018-12-01T18:06:41.964Z,85.38
2018-12-01T18:09:11.779Z,85.54
2018-12-01T18:11:41.708Z,85.48
2018-12-01T18:14:12.538Z,85.11
2018-12-01T18:16:42.396Z,85.37
2018-12-01T18:19:12.194Z,85.09
2018-12-01T18:21:42.074Z,85.17
2018-12-01T18:24:11.915Z,85.42
2018-12-01T18:26:42.333Z,85.73
2018-12-01T18:29:12.106Z,85.45
2018-12-01T18:31:41.951Z,85.76
2018-12-01T18:34:15.113Z,85.19
2018-12-01T18:36:44.973Z,85.00
2018-12-01T18:39:18.355Z,84.88
2018-12-01T18:41:48.154Z,85.11
2018-12-01T18:44:17.958Z,85.32
2018-12-01T18:46:47.786Z,85.32
2018-12-01T18:49:17.674Z,84.92
2018-12-01T18:51:47.684Z,85.17
2018-12-01T18:54:17.490Z,84.30
2018-12-01T18:56:47.358Z,84.66
2018-12-01T18:59:17.198Z,85.14
2018-12-01T19:01:49.964Z,84.19
2018-12-01T19:04:19.805Z,84.30
2018-12-01T19:06:49.735Z,84.30
2018-12-01T19:09:19.576Z,84.68
2018-12-01T19:11:49.463Z,84.58
2018-12-01T19:14:19.239Z,85.02
2018-12-01T19:16:49.084Z,85.34
2018-12-01T19:19:18.896Z,85.10
2018-12-01T19:21:48.810Z,85.34
2018-12-01T19:24:18.779Z,85.29
2018-12-01T19:26:48.580Z,85.05
2018-12-01T19:29:18.399Z,84.87
2018-12-01T19:31:48.229Z,84.96
2018-12-01T19:34:18.063Z,85.38
2018-12-01T19:36:47.899Z,84.96
2018-12-01T19:39:17.808Z,84.45
2018-12-01T19:41:47.630Z,84.87
2018-12-01T19:44:17.408Z,84.93
2018-12-01T19:46:47.183Z,85.43
2018-12-01T19:49:17.099Z,85.03
2018-12-01T19:51:46.889Z,85.11
2018-12-01T19:54:16.693Z,84.86
2018-12-01T19:56:46.467Z,84.98
2018-12-01T19:59:16.269Z,85.03
2018-12-01T20:05:22.697Z,84.22
2018-12-01T20:07:53.773Z,84.28
2018-12-01T20:10:36.022Z,83.60
2018-12-01T20:13:30.090Z,82.82
2018-12-01T20:16:04.476Z,82.25
2018-12-01T20:18:34.616Z,82.84
2018-12-01T20:21:05.191Z,83.27
2018-12-01T20:23:35.023Z,83.42
2018-12-01T20:26:05.054Z,83.68
2018-12-01T20:28:34.891Z,83.75
2018-12-01T20:31:04.909Z,84.53
2018-12-01T20:33:34.763Z,84.15
2018-12-01T20:36:12.159Z,83.61
2018-12-01T20:38:47.921Z,82.49
2018-12-01T20:41:17.932Z,82.79
2018-12-01T20:43:47.775Z,83.73
2018-12-01T20:46:17.603Z,84.13
2018-12-01T20:48:47.437Z,83.79
2018-12-01T20:51:17.217Z,84.10
2018-12-01T20:53:47.179Z,84.56
2018-12-01T20:56:20.776Z,84.31
2018-12-01T20:58:50.599Z,84.33
2018-12-01T21:01:20.815Z,84.34
2018-12-01T21:03:50.621Z,84.21
2018-12-01T21:06:20.449Z,83.69
2018-12-01T21:08:50.331Z,84.04
2018-12-01T21:11:21.343Z,83.73
2018-12-01T21:13:51.220Z,83.69
2018-12-01T21:16:21.155Z,83.96
2018-12-01T21:18:51.057Z,83.74
2018-12-01T21:21:20.842Z,82.93
2018-12-01T21:23:50.665Z,82.68
2018-12-01T21:26:20.441Z,82.53
2018-12-01T21:28:50.343Z,82.05
2018-12-01T21:31:20.217Z,81.19
2018-12-01T21:33:50.056Z,80.98
2018-12-01T21:36:19.908Z,80.47
2018-12-01T21:38:49.769Z,80.05
2018-12-01T21:48:31.757Z,80.35
2018-12-01T21:51:01.549Z,80.21
2018-12-01T21:53:31.415Z,80.22
2018-12-01T21:56:01.225Z,80.08
2018-12-01T21:58:31.037Z,79.85
2018-12-01T22:01:02.743Z,79.76
2018-12-01T22:03:33.227Z,79.59
2018-12-01T22:06:04.561Z,79.23
2018-12-01T22:08:35.581Z,79.50
2018-12-01T22:11:05.755Z,79.64
2018-12-01T22:13:35.562Z,79.49
2018-12-01T22:16:06.081Z,79.54
2018-12-01T22:18:35.905Z,79.44
2018-12-01T22:21:05.855Z,79.60
2018-12-01T22:23:35.664Z,79.68
2018-12-01T22:26:05.999Z,79.41
2018-12-01T22:28:35.792Z,79.40
2018-12-01T22:31:05.615Z,79.12
2018-12-01T22:33:35.407Z,78.78
2018-12-01T22:36:05.315Z,79.00
2018-12-01T22:38:35.121Z,78.75
2018-12-01T22:41:05.184Z,78.42
2018-12-01T22:43:35.086Z,78.18
2018-12-01T22:46:05.190Z,78.26
2018-12-01T22:48:34.943Z,78.17
2018-12-01T22:51:04.909Z,78.39
2018-12-01T22:53:34.746Z,78.00
2018-12-01T22:56:04.700Z,77.91
2018-12-01T22:58:34.529Z,77.94
2018-12-01T23:01:04.716Z,78.12
2018-12-01T23:03:38.560Z,78.07
2018-12-01T23:06:08.382Z,78.04
2018-12-01T23:08:38.454Z,77.94
2018-12-01T23:11:08.623Z,77.60
2018-12-01T23:13:38.412Z,77.39
2018-12-01T23:16:08.595Z,77.64
2018-12-01T23:18:38.400Z,77.34
2018-12-01T23:21:08.574Z,77.39
2018-12-01T23:23:38.345Z,77.31
2018-12-01T23:26:08.190Z,77.07
2018-12-01T23:28:38.072Z,77.11
2018-12-01T23:31:08.253Z,76.80
2018-12-01T23:33:38.112Z,76.33
2018-12-01T23:36:08.066Z,75.76
2018-12-01T23:38:37.836Z,76.43
2018-12-01T23:41:08.093Z,76.16
2018-12-01T23:43:37.896Z,75.96
2018-12-01T23:46:08.073Z,76.55
2018-12-01T23:48:37.844Z,76.65
2018-12-01T23:51:08.205Z,76.79
2018-12-01T23:53:37.968Z,77.18
2018-12-01T23:56:08.384Z,77.10
2018-12-01T23:58:38.214Z,76.76
